createdAt,value
2019-04-22T00:02:28.505Z,17.43
2019-04-22T00:05:11.479Z,16.57
2019-04-22T00:07:56.717Z,16.53
2019-04-22T00:10:34.151Z,15.93
2019-04-22T00:13:00.094Z,16.57
2019-04-22T00:15:27.932Z,15.23
2019-04-22T00:18:22.362Z,15.87
2019-04-22T00:20:58.221Z,15.53
2019-04-22T00:23:24.515Z,14.97
2019-04-22T00:26:03.408Z,14.97
2019-04-22T00:28:30.570Z,15.43
2019-04-22T00:31:16.921Z,14.73
2019-04-22T00:33:38.623Z,14.90
2019-04-22T00:36:16.594Z,14.10
2019-04-22T00:38:55.834Z,15.13
2019-04-22T00:41:21.459Z,15.30
2019-04-22T00:43:59.042Z,14.73
2019-04-22T00:46:29.253Z,17.80
2019-04-22T00:49:46.028Z,18.47
2019-04-22T00:51:29.045Z,19.37
2019-04-22T00:53:54.565Z,18.47
2019-04-22T00:56:28.233Z,19.77
2019-04-22T00:58:59.032Z,18.53
2019-04-22T01:01:31.107Z,19.63
2019-04-22T01:06:33.330Z,18.03
2019-04-22T01:09:27.198Z,18.50
2019-04-22T01:11:38.854Z,17.23
2019-04-22T01:14:20.343Z,18.30
2019-04-22T01:16:48.527Z,17.60
2019-04-22T01:19:16.688Z,17.63
2019-04-22T01:21:45.078Z,18.23
2019-04-22T01:24:17.545Z,19.37
2019-04-22T01:26:43.644Z,17.80
2019-04-22T01:32:52.082Z,19.10
2019-04-22T01:35:34.847Z,18.87
2019-04-22T01:38:08.943Z,18.73
2019-04-22T01:40:58.615Z,17.50
2019-04-22T01:43:25.100Z,17.73
2019-04-22T01:45:53.319Z,16.90
2019-04-22T01:48:26.819Z,17.10
2019-04-22T01:50:50.006Z,16.27
2019-04-22T01:53:27.390Z,16.20
2019-04-22T01:55:59.047Z,16.43
2019-04-22T01:58:24.889Z,17.00
2019-04-22T02:01:02.661Z,16.20
2019-04-22T02:03:34.705Z,15.67
2019-04-22T02:06:05.844Z,16.03
2019-04-22T02:08:45.454Z,15.93
2019-04-22T02:11:08.143Z,15.10
2019-04-22T02:13:36.658Z,15.50
2019-04-22T02:16:12.554Z,14.53
2019-04-22T02:18:44.831Z,14.13
2019-04-22T02:24:07.005Z,14.23
2019-04-22T02:26:46.441Z,14.67
2019-04-22T02:29:07.886Z,14.43
2019-04-22T02:31:44.184Z,15.17
2019-04-22T02:34:21.739Z,16.13
2019-04-22T02:36:54.766Z,16.20
2019-04-22T02:42:09.463Z,19.03
2019-04-22T02:44:26.398Z,21.83
2019-04-22T02:47:06.966Z,21.07
2019-04-22T02:49:25.303Z,22.50
2019-04-22T02:51:43.507Z,21.73
2019-04-22T02:54:40.718Z,21.90
2019-04-22T02:56:56.036Z,22.73
2019-04-22T02:59:25.895Z,22.67
2019-04-22T03:01:53.226Z,21.47
2019-04-22T03:04:24.267Z,21.63
2019-04-22T03:06:52.379Z,19.97
2019-04-22T03:09:34.063Z,19.33
2019-04-22T03:14:33.806Z,17.97
2019-04-22T03:22:08.641Z,10.90
2019-04-22T03:27:14.113Z,8.13
2019-04-22T03:37:53.315Z,9.87
2019-04-22T03:47:57.720Z,11.43
2019-04-22T03:50:25.415Z,12.30
2019-04-22T03:53:03.963Z,11.83
2019-04-22T04:00:45.963Z,12.77
2019-04-22T04:05:49.667Z,14.20
2019-04-22T04:13:08.299Z,16.70
2019-04-22T04:15:46.256Z,16.33
2019-04-22T04:18:30.332Z,17.93
2019-04-22T04:20:44.766Z,18.83
2019-04-22T04:25:46.726Z,20.53
2019-04-22T04:30:57.357Z,20.20
2019-04-22T04:35:53.051Z,25.23
2019-04-22T04:38:25.571Z,24.20
2019-04-22T04:43:29.986Z,26.30
2019-04-22T04:46:03.932Z,25.73
2019-04-22T04:48:32.287Z,24.33
2019-04-22T04:53:24.927Z,25.50
2019-04-22T04:56:11.097Z,24.37
2019-04-22T05:01:23.309Z,25.67
2019-04-22T05:03:48.904Z,25.07
2019-04-22T05:09:03.833Z,26.70
2019-04-22T05:13:49.808Z,25.27
2019-04-22T05:16:25.588Z,24.17
2019-04-22T05:18:44.788Z,23.97
2019-04-22T05:21:12.278Z,23.33
2019-04-22T05:23:48.747Z,24.63
2019-04-22T05:26:22.644Z,23.47
2019-04-22T05:28:42.070Z,23.00
2019-04-22T05:31:15.808Z,23.13
2019-04-22T05:33:48.316Z,22.57
2019-04-22T05:36:23.520Z,21.50
2019-04-22T05:41:15.941Z,22.07
2019-04-22T05:43:54.446Z,21.77
2019-04-22T05:46:26.968Z,20.07
2019-04-22T05:48:53.903Z,22.27
2019-04-22T05:51:25.917Z,22.30
2019-04-22T05:53:59.532Z,21.13
2019-04-22T05:56:34.203Z,20.10
2019-04-22T06:01:45.130Z,19.27
2019-04-22T06:04:05.277Z,18.23
2019-04-22T06:06:34.143Z,18.47
2019-04-22T06:09:05.136Z,18.27
2019-04-22T06:11:32.179Z,16.30
2019-04-22T06:14:09.834Z,16.23
2019-04-22T06:16:44.399Z,15.67
2019-04-22T06:22:06.436Z,14.80
2019-04-22T06:24:21.561Z,14.10
2019-04-22T06:29:20.537Z,13.37
2019-04-22T06:37:05.342Z,13.80
2019-04-22T06:39:34.106Z,13.13
2019-04-22T06:42:01.125Z,12.83
2019-04-22T06:44:29.758Z,13.47
2019-04-22T06:46:56.390Z,13.17
2019-04-22T06:49:35.912Z,12.80
2019-04-22T06:52:07.741Z,13.17
2019-04-22T06:54:32.522Z,11.70
2019-04-22T06:57:19.674Z,12.67
2019-04-22T06:59:36.282Z,12.73
2019-04-22T07:02:10.096Z,12.30
2019-04-22T07:04:38.002Z,12.37
2019-04-22T07:07:12.254Z,12.80
2019-04-22T07:12:20.122Z,12.90
2019-04-22T07:14:48.772Z,12.60
2019-04-22T07:17:17.462Z,13.87
2019-04-22T07:19:45.009Z,12.87
2019-04-22T07:27:25.302Z,12.80
2019-04-22T07:29:57.647Z,13.90
2019-04-22T07:32:29.889Z,12.97
2019-04-22T07:34:52.879Z,14.10
2019-04-22T07:37:31.795Z,13.60
2019-04-22T07:39:50.128Z,13.63
2019-04-22T07:44:54.895Z,13.07
2019-04-22T07:47:35.895Z,12.33
2019-04-22T07:49:59.244Z,12.13
2019-04-22T07:57:32.837Z,8.67
2019-04-22T08:00:10.965Z,8.30
2019-04-22T08:02:44.155Z,9.87
2019-04-22T08:07:46.465Z,6.83
2019-04-22T08:12:47.416Z,7.23
2019-04-22T08:15:38.684Z,7.13
2019-04-22T08:18:15.136Z,7.67
2019-04-22T08:20:41.020Z,8.97
2019-04-22T08:25:42.621Z,8.00
2019-04-22T08:28:17.804Z,7.23
2019-04-22T08:30:47.727Z,6.20
2019-04-22T08:33:21.622Z,5.60
2019-04-22T08:36:10.844Z,4.40
2019-04-22T08:38:24.260Z,3.77
2019-04-22T08:41:23.579Z,3.53
2019-04-22T08:43:56.235Z,3.67
2019-04-22T08:46:25.278Z,3.17
2019-04-22T08:48:55.815Z,3.37
2019-04-22T08:51:25.381Z,3.47
2019-04-22T08:54:00.108Z,3.50
2019-04-22T08:59:01.793Z,4.27
2019-04-22T09:01:29.962Z,3.97
2019-04-22T09:04:01.915Z,4.20
2019-04-22T09:09:06.137Z,4.57
2019-04-22T09:14:11.298Z,3.80
2019-04-22T09:16:37.400Z,4.30
2019-04-22T09:19:22.781Z,3.77
2019-04-22T09:24:16.909Z,4.30
2019-04-22T09:26:47.661Z,4.63
2019-04-22T09:31:53.948Z,5.67
2019-04-22T09:34:22.501Z,4.90
2019-04-22T09:36:58.932Z,5.77
2019-04-22T09:39:21.766Z,5.40
2019-04-22T09:41:51.080Z,5.60
2019-04-22T09:44:34.625Z,6.00
2019-04-22T09:52:42.108Z,6.87
2019-04-22T09:55:24.381Z,5.37
2019-04-22T09:57:41.313Z,5.77
2019-04-22T10:00:28.668Z,5.97
2019-04-22T10:02:48.946Z,6.90
2019-04-22T10:05:20.613Z,6.40
2019-04-22T10:07:44.875Z,6.90
2019-04-22T10:10:36.595Z,6.60
2019-04-22T10:12:46.624Z,5.87
2019-04-22T10:15:19.528Z,5.77
2019-04-22T10:18:09.732Z,6.33
2019-04-22T10:20:28.110Z,6.07
2019-04-22T10:23:03.318Z,6.07
2019-04-22T10:25:27.992Z,6.43
2019-04-22T10:28:01.600Z,6.13
2019-04-22T10:30:38.380Z,6.27
2019-04-22T10:33:01.161Z,6.37
2019-04-22T10:35:17.090Z,5.57
2019-04-22T10:37:44.379Z,3.30
2019-04-22T10:40:32.475Z,3.43
2019-04-22T10:43:03.204Z,3.43
2019-04-22T10:45:32.647Z,3.50
2019-04-22T10:48:01.952Z,3.43
2019-04-22T10:50:46.594Z,3.23
2019-04-22T10:53:17.762Z,3.33
2019-04-22T10:55:49.798Z,3.40
2019-04-22T10:58:20.879Z,3.27
2019-04-22T11:00:54.729Z,3.37
2019-04-22T11:03:28.366Z,4.10
2019-04-22T11:06:19.123Z,3.73
2019-04-22T11:08:55.493Z,3.53
2019-04-22T11:11:32.303Z,3.27
2019-04-22T11:13:53.950Z,3.70
2019-04-22T11:16:47.742Z,4.60
2019-04-22T11:19:17.373Z,3.90
2019-04-22T11:22:00.942Z,3.97
2019-04-22T11:24:18.840Z,4.50
2019-04-22T11:26:49.324Z,4.23
2019-04-22T11:29:19.582Z,4.90
2019-04-22T11:35:23.694Z,4.83
2019-04-22T11:37:54.998Z,5.10
2019-04-22T11:40:58.175Z,5.53
2019-04-22T11:43:28.502Z,4.83
2019-04-22T11:55:40.421Z,4.03
2019-04-22T11:58:12.823Z,4.60
2019-04-22T12:01:37.190Z,4.73
2019-04-22T12:04:07.991Z,4.80
2019-04-22T12:13:42.251Z,4.27
2019-04-22T12:16:11.698Z,5.23
2019-04-22T12:18:41.104Z,5.73
2019-04-22T12:21:13.170Z,5.33
2019-04-22T12:23:43.399Z,5.87
2019-04-22T12:26:16.488Z,5.53
2019-04-22T12:28:45.016Z,5.73
2019-04-22T12:31:15.564Z,5.70
2019-04-22T12:59:27.961Z,3.87
2019-04-22T13:01:58.678Z,4.13
2019-04-22T13:04:28.265Z,4.00
2019-04-22T13:06:57.733Z,4.60
2019-04-22T13:23:46.556Z,5.73
2019-04-22T13:26:16.934Z,5.30
2019-04-22T13:28:47.287Z,5.27
2019-04-22T13:31:20.408Z,4.90
2019-04-22T13:33:51.286Z,5.57
2019-04-22T13:36:21.860Z,6.83
2019-04-22T13:38:51.282Z,7.07
2019-04-22T13:41:31.711Z,8.73
2019-04-22T13:43:53.862Z,7.50
2019-04-22T13:56:49.193Z,5.37
2019-04-22T13:59:10.239Z,5.10
2019-04-22T14:01:44.210Z,5.07
2019-04-22T14:04:28.394Z,5.10
2019-04-22T14:06:58.746Z,5.67
2019-04-22T14:09:28.385Z,6.50
2019-04-22T14:12:03.362Z,6.50
2019-04-22T14:14:30.101Z,5.87
2019-04-22T14:17:00.723Z,6.33
2019-04-22T14:19:31.989Z,7.23
2019-04-22T14:22:01.974Z,7.33
2019-04-22T14:24:31.605Z,8.07
2019-04-22T14:27:19.571Z,8.40
2019-04-22T14:29:51.546Z,8.87
2019-04-22T14:32:27.028Z,9.77
2019-04-22T14:34:55.357Z,9.10
2019-04-22T14:37:24.673Z,8.73
2019-04-22T14:39:54.061Z,7.70
2019-04-22T14:42:56.857Z,8.43
2019-04-22T14:45:42.616Z,7.63
2019-04-22T14:51:31.901Z,7.00
2019-04-22T14:54:06.618Z,7.07
2019-04-22T14:56:20.168Z,7.03
2019-04-22T14:58:50.865Z,7.17
2019-04-22T15:01:21.127Z,8.00
2019-04-22T15:03:50.740Z,7.03
2019-04-22T15:06:22.294Z,7.57
2019-04-22T15:08:56.177Z,7.10
2019-04-22T15:11:24.298Z,6.73
2019-04-22T15:13:53.691Z,6.37
2019-04-22T15:16:38.393Z,6.13
2019-04-22T15:19:22.112Z,6.67
2019-04-22T15:21:52.527Z,6.77
2019-04-22T15:24:27.401Z,6.40
2019-04-22T15:26:58.562Z,6.33
2019-04-22T15:29:29.670Z,6.93
2019-04-22T15:31:59.916Z,7.50
2019-04-22T15:34:30.548Z,6.97
2019-04-22T15:37:02.342Z,6.60
2019-04-22T15:39:31.992Z,7.03
2019-04-22T15:42:11.717Z,7.13
2019-04-22T15:44:33.848Z,7.20
2019-04-22T15:47:04.866Z,7.57
2019-04-22T15:49:35.740Z,8.47
2019-04-22T15:52:06.635Z,5.57
2019-04-22T15:54:37.643Z,7.87
2019-04-22T15:57:08.691Z,10.30
2019-04-22T15:59:53.740Z,9.37
2019-04-22T16:02:10.136Z,9.80
2019-04-22T16:04:41.136Z,8.93
2019-04-22T16:07:12.612Z,9.90
2019-04-22T16:09:43.427Z,9.57
2019-04-22T16:12:20.011Z,10.23
2019-04-22T16:14:51.343Z,8.07
2019-04-22T16:17:18.798Z,6.93
2019-04-22T16:19:50.858Z,7.00
2019-04-22T16:22:21.769Z,5.70
2019-04-22T16:25:15.464Z,5.97
2019-04-22T16:27:44.837Z,6.27
2019-04-22T16:30:15.138Z,6.40
2019-04-22T16:32:45.446Z,6.50
2019-04-22T16:35:15.107Z,6.33
2019-04-22T16:37:44.444Z,6.37
2019-04-22T16:40:14.717Z,6.53
2019-04-22T16:42:51.509Z,6.30
2019-04-22T16:45:15.703Z,6.23
2019-04-22T16:47:45.856Z,6.30
2019-04-22T16:50:15.991Z,6.47
2019-04-22T16:52:46.008Z,6.87
2019-04-22T16:58:10.922Z,6.97
2019-04-22T17:00:40.727Z,7.60
2019-04-22T17:03:28.918Z,7.43
2019-04-22T17:06:17.175Z,7.97
2019-04-22T17:08:46.984Z,9.23
2019-04-22T17:11:17.841Z,11.10
2019-04-22T17:13:48.106Z,10.83
2019-04-22T17:16:20.074Z,11.57
2019-04-22T17:18:50.070Z,10.30
2019-04-22T17:21:19.749Z,9.50
2019-04-22T17:23:49.884Z,8.40
2019-04-22T17:26:20.617Z,7.97
2019-04-22T17:28:51.348Z,7.80
2019-04-22T17:31:22.832Z,7.67
2019-04-22T17:33:52.992Z,7.70
2019-04-22T17:36:22.702Z,8.90
2019-04-22T17:39:00.823Z,9.43
2019-04-22T17:41:41.804Z,8.33
2019-04-22T17:51:00.027Z,8.03
2019-04-22T17:53:33.349Z,8.00
2019-04-22T17:56:37.820Z,7.80
2019-04-22T17:59:09.631Z,8.00
2019-04-22T18:01:51.543Z,8.10
2019-04-22T18:04:04.844Z,8.50
2019-04-22T18:10:49.113Z,7.10
2019-04-22T18:16:52.043Z,7.10
2019-04-22T18:19:21.227Z,6.60
2019-04-22T18:21:47.592Z,7.43
2019-04-22T18:24:32.428Z,6.30
2019-04-22T18:27:30.472Z,6.33
2019-04-22T18:29:48.439Z,6.20
2019-04-22T18:32:16.794Z,6.13
2019-04-22T18:41:51.887Z,6.13
2019-04-22T19:08:12.420Z,6.10
2019-04-22T19:23:04.175Z,6.10
2019-04-22T19:25:29.376Z,5.93
2019-04-22T19:28:18.956Z,5.93
2019-04-22T19:30:43.040Z,6.47
2019-04-22T19:33:10.956Z,6.77
2019-04-22T19:35:40.232Z,6.40
2019-04-22T19:38:10.973Z,6.07
2019-04-22T19:41:05.031Z,6.27
2019-04-22T19:43:22.895Z,6.17
2019-04-22T19:45:53.687Z,6.07
2019-04-22T19:48:35.971Z,6.50
2019-04-22T19:51:02.638Z,6.27
2019-04-22T19:53:29.760Z,6.27
2019-04-22T19:55:53.787Z,6.87
2019-04-22T19:58:28.077Z,6.60
2019-04-22T20:01:16.398Z,6.80
2019-04-22T20:04:37.723Z,6.10
2019-04-22T20:06:53.947Z,6.77
2019-04-22T20:09:30.065Z,6.40
2019-04-22T20:11:57.485Z,6.53
2019-04-22T20:14:29.830Z,6.90
2019-04-22T20:16:57.379Z,6.30
2019-04-22T20:19:44.303Z,6.63
2019-04-22T20:22:04.835Z,6.50
2019-04-22T20:24:21.710Z,6.60
2019-04-22T20:27:09.295Z,6.93
2019-04-22T20:29:54.066Z,6.53
2019-04-22T20:32:10.870Z,6.77
2019-04-22T20:34:46.018Z,5.90
2019-04-22T20:37:15.199Z,6.53
2019-04-22T20:39:45.672Z,6.00
2019-04-22T20:42:23.143Z,6.27
2019-04-22T20:44:46.180Z,5.60
2019-04-22T20:47:09.220Z,5.77
2019-04-22T20:49:48.752Z,6.00
2019-04-22T20:52:33.092Z,5.60
2019-04-22T20:54:44.624Z,5.73
2019-04-22T20:57:19.403Z,6.40
2019-04-22T20:59:48.181Z,5.77
2019-04-22T21:02:15.194Z,6.37
2019-04-22T21:04:43.158Z,5.93
2019-04-22T21:07:23.832Z,6.10
2019-04-22T21:09:55.215Z,6.07
2019-04-22T21:12:22.370Z,6.10
2019-04-22T21:15:06.483Z,5.80
2019-04-22T21:17:34.891Z,6.20
2019-04-22T21:20:10.088Z,5.10
2019-04-22T21:22:41.696Z,5.87
2019-04-22T21:25:03.579Z,5.53
2019-04-22T21:27:45.300Z,5.37
2019-04-22T21:30:03.382Z,5.97
2019-04-22T21:32:38.631Z,6.00
2019-04-22T21:35:21.598Z,5.57
2019-04-22T21:37:51.030Z,5.60
2019-04-22T21:40:17.823Z,5.30
2019-04-22T21:42:54.163Z,5.30
2019-04-22T21:45:14.610Z,5.27
2019-04-22T21:47:57.597Z,5.17
2019-04-22T21:50:36.390Z,5.77
2019-04-22T21:52:56.913Z,5.17
2019-04-22T21:55:23.688Z,5.17
2019-04-22T21:58:12.181Z,5.23
2019-04-22T22:01:06.517Z,5.20
2019-04-22T22:03:30.070Z,5.37
2019-04-22T22:05:47.228Z,4.97
2019-04-22T22:08:32.227Z,5.03
2019-04-22T22:10:57.969Z,5.20
2019-04-22T22:17:42.280Z,4.80
2019-04-22T22:20:09.880Z,5.77
2019-04-22T22:22:53.642Z,5.77
2019-04-22T22:25:20.156Z,5.43
2019-04-22T22:27:44.379Z,5.30
2019-04-22T22:30:38.820Z,5.30
2019-04-22T22:32:55.123Z,5.63
2019-04-22T22:35:23.391Z,5.13
2019-04-22T22:37:51.762Z,5.13
2019-04-22T22:40:10.832Z,5.20
2019-04-22T22:42:41.893Z,5.07
2019-04-22T22:45:20.001Z,4.93
2019-04-22T22:50:55.095Z,5.57
2019-04-22T22:55:53.158Z,5.37
2019-04-22T22:58:57.323Z,5.27
2019-04-22T23:01:31.770Z,5.00
2019-04-22T23:08:20.414Z,5.27
2019-04-22T23:10:55.519Z,5.50
2019-04-22T23:13:26.211Z,4.93
2019-04-22T23:15:48.462Z,5.50
2019-04-22T23:18:03.884Z,5.37
2019-04-22T23:20:39.505Z,5.20
2019-04-22T23:23:29.685Z,5.30
2019-04-22T23:26:02.654Z,5.17
2019-04-22T23:28:57.649Z,5.50
2019-04-22T23:34:32.788Z,4.90
2019-04-22T23:37:22.143Z,4.97
2019-04-22T23:40:13.379Z,5.57
2019-04-22T23:42:33.240Z,5.40
2019-04-22T23:46:02.320Z,5.20
2019-04-22T23:48:27.143Z,4.90
2019-04-22T23:51:08.924Z,5.13
2019-04-22T23:54:13.182Z,5.80
2019-04-22T23:56:39.116Z,5.37
2019-04-22T23:59:37.933Z,5.40
